Andyville, Minnesota
Current Conditions -  °F | °C
As of 2:16 AM on Sunday 23 Nov 2014 (Local Time) from KAUM Reporting Station
Haze Haze  
Wind Chill: 43°   Ceiling: 600
Heat Index: 48°   Visibility: 5mi
Dew Point: 48°   Wind: 14mph
Humidity: 100%   Direction: 190°S
Pressure: 29.53"   Gusts: NA
Location:  43.7173°N, 92.9889°W
Report Text: KAUM 230816Z AUTO 19012KT 5SM BR OVC006 09/09 A2953 RMK AO2
Loading
Personal Weather Stations






























Interactive Weather Map New forecast layout! Learn more

10-Day Weather Forecast

Advertisements
Track Severe Weather on mobile